createdAt,value
2023-03-10T00:00:54.142Z,4.53
2023-03-10T00:03:23.558Z,3.57
2023-03-10T00:05:55.727Z,3.33
2023-03-10T00:08:27.140Z,3.33
2023-03-10T00:11:06.887Z,3.57
2023-03-10T00:13:44.175Z,3.23
2023-03-10T00:16:20.210Z,4.17
2023-03-10T00:18:51.127Z,3.13
2023-03-10T00:21:22.382Z,2.90
2023-03-10T00:23:53.144Z,2.70
2023-03-10T00:26:30.746Z,2.50
2023-03-10T00:29:04.931Z,3.90
2023-03-10T00:31:43.285Z,2.73
2023-03-10T00:34:12.653Z,2.80
2023-03-10T00:36:41.936Z,2.97
2023-03-10T00:39:11.972Z,2.53
2023-03-10T00:41:55.380Z,3.30
2023-03-10T00:44:25.137Z,3.50
2023-03-10T00:46:54.646Z,3.30
2023-03-10T00:49:26.298Z,3.37
2023-03-10T00:52:00.266Z,3.60
2023-03-10T00:54:28.583Z,3.00
2023-03-10T00:57:14.986Z,3.57
2023-03-10T00:59:51.183Z,3.50
2023-03-10T01:02:22.128Z,3.57
2023-03-10T01:04:50.852Z,3.50
2023-03-10T01:07:28.339Z,3.60
2023-03-10T01:09:59.288Z,3.93
2023-03-10T01:12:35.951Z,4.20
2023-03-10T01:15:13.716Z,3.60
2023-03-10T01:17:44.343Z,4.83
2023-03-10T01:20:25.111Z,4.40
2023-03-10T01:23:01.573Z,4.20
2023-03-10T01:25:36.680Z,4.23
2023-03-10T01:28:11.519Z,4.67
2023-03-10T01:30:42.354Z,4.80
2023-03-10T01:33:14.015Z,4.70
2023-03-10T01:35:45.027Z,5.30
2023-03-10T01:38:22.136Z,4.50
2023-03-10T01:40:51.570Z,4.77
2023-03-10T01:43:46.484Z,4.70
2023-03-10T01:46:44.483Z,4.63
2023-03-10T01:49:41.891Z,4.80
2023-03-10T01:52:16.376Z,4.80
2023-03-10T01:54:52.771Z,4.57
2023-03-10T01:57:26.013Z,3.93
2023-03-10T02:00:00.941Z,4.97
2023-03-10T02:02:56.677Z,4.70
2023-03-10T02:05:26.240Z,3.93
2023-03-10T02:07:56.884Z,4.57
2023-03-10T02:10:28.581Z,4.40
2023-03-10T02:13:06.476Z,4.43
2023-03-10T02:15:43.014Z,4.10
2023-03-10T02:18:14.573Z,4.50
2023-03-10T02:20:51.360Z,3.97
2023-03-10T02:23:26.796Z,4.53
2023-03-10T02:25:58.822Z,3.83
2023-03-10T02:28:35.690Z,4.20
2023-03-10T02:31:07.648Z,3.97
2023-03-10T02:33:39.512Z,3.93
2023-03-10T02:36:17.607Z,3.90
2023-03-10T02:38:50.730Z,3.87
2023-03-10T02:41:22.921Z,3.73
2023-03-10T02:44:10.468Z,4.40
2023-03-10T02:46:39.905Z,4.90
2023-03-10T02:49:19.897Z,3.83
2023-03-10T02:51:50.787Z,4.53
2023-03-10T02:54:25.424Z,4.83
2023-03-10T02:57:07.516Z,4.30
2023-03-10T02:59:58.221Z,4.20
2023-03-10T03:02:29.659Z,4.80
2023-03-10T03:05:00.463Z,4.20
2023-03-10T03:07:32.183Z,4.40
2023-03-10T03:10:07.153Z,4.50
2023-03-10T03:12:37.912Z,3.70
2023-03-10T03:15:32.909Z,3.90
2023-03-10T03:18:02.386Z,3.97
2023-03-10T03:20:38.209Z,3.80
2023-03-10T03:23:10.256Z,3.80
2023-03-10T03:25:41.715Z,4.30
2023-03-10T03:28:14.424Z,4.30
2023-03-10T03:30:47.534Z,3.90
2023-03-10T03:33:20.893Z,4.17
2023-03-10T03:35:53.432Z,4.10
2023-03-10T03:38:30.099Z,3.87
2023-03-10T03:41:01.536Z,3.40
2023-03-10T03:43:34.106Z,3.70
2023-03-10T03:46:05.770Z,3.70
2023-03-10T03:48:35.460Z,4.20
2023-03-10T03:51:08.170Z,3.37
2023-03-10T03:53:47.801Z,3.60
2023-03-10T03:56:18.089Z,3.80
2023-03-10T03:58:50.688Z,3.13
2023-03-10T04:01:36.632Z,4.03
2023-03-10T04:04:15.245Z,3.20
2023-03-10T04:06:56.383Z,3.70
2023-03-10T04:09:25.028Z,3.93
2023-03-10T04:11:56.842Z,3.40
2023-03-10T04:14:26.916Z,3.67
2023-03-10T04:17:04.715Z,3.77
2023-03-10T04:19:33.860Z,3.80
2023-03-10T04:22:11.732Z,3.30
2023-03-10T04:24:44.407Z,2.73
2023-03-10T04:27:21.299Z,3.00
2023-03-10T04:29:53.737Z,3.20
2023-03-10T04:32:31.098Z,3.10
2023-03-10T04:35:03.367Z,2.60
2023-03-10T04:37:31.507Z,2.90
2023-03-10T04:40:03.507Z,3.37
2023-03-10T04:42:31.901Z,3.50
2023-03-10T04:45:03.313Z,2.97
2023-03-10T04:47:35.526Z,3.10
2023-03-10T04:50:05.424Z,3.33
2023-03-10T04:52:36.458Z,3.17
2023-03-10T04:55:16.084Z,2.83
2023-03-10T04:57:47.915Z,4.37
2023-03-10T05:00:29.157Z,3.80
2023-03-10T05:03:06.022Z,3.20
2023-03-10T05:05:38.427Z,3.77
2023-03-10T05:08:07.529Z,3.10
2023-03-10T05:10:39.647Z,3.37
2023-03-10T05:13:12.220Z,3.10
2023-03-10T05:15:44.143Z,3.47
2023-03-10T05:18:19.748Z,3.80
2023-03-10T05:21:01.208Z,3.67
2023-03-10T05:23:35.018Z,4.00
2023-03-10T05:26:07.475Z,2.93
2023-03-10T05:28:37.184Z,3.37
2023-03-10T05:31:26.494Z,3.93
2023-03-10T05:34:04.868Z,3.73
2023-03-10T05:36:33.462Z,3.47
2023-03-10T05:39:13.602Z,3.73
2023-03-10T05:41:49.574Z,3.50
2023-03-10T05:44:22.051Z,3.83
2023-03-10T05:46:50.971Z,3.50
2023-03-10T05:49:23.303Z,3.53
2023-03-10T05:51:56.448Z,3.03
2023-03-10T05:54:27.429Z,4.10
2023-03-10T05:56:59.082Z,4.10
2023-03-10T05:59:33.268Z,3.80
2023-03-10T06:02:05.149Z,4.23
2023-03-10T06:04:39.940Z,4.40
2023-03-10T06:07:23.065Z,3.70
2023-03-10T06:10:02.704Z,3.47
2023-03-10T06:12:36.144Z,3.70
2023-03-10T06:15:07.286Z,3.30
2023-03-10T06:17:40.175Z,3.80
2023-03-10T06:20:17.549Z,4.40
2023-03-10T06:22:49.101Z,4.70
2023-03-10T06:25:20.545Z,3.60
2023-03-10T06:27:50.105Z,3.20
2023-03-10T06:30:33.323Z,2.93
2023-03-10T06:33:10.314Z,3.10
2023-03-10T06:35:44.400Z,3.13
2023-03-10T06:38:20.529Z,3.50
2023-03-10T06:40:51.356Z,3.00
2023-03-10T06:43:21.101Z,3.67
2023-03-10T06:45:56.001Z,2.97
2023-03-10T06:48:26.586Z,3.07
2023-03-10T06:50:57.090Z,3.37
2023-03-10T06:53:27.095Z,3.13
2023-03-10T06:56:00.726Z,3.13
2023-03-10T06:58:31.521Z,3.20
2023-03-10T07:01:13.998Z,3.63
2023-03-10T07:03:46.450Z,3.90
2023-03-10T07:06:29.778Z,4.07
2023-03-10T07:09:01.360Z,3.90
2023-03-10T07:11:29.511Z,4.57
2023-03-10T07:14:05.631Z,4.50
2023-03-10T07:16:44.594Z,4.80
2023-03-10T07:19:13.050Z,4.93
2023-03-10T07:21:49.758Z,5.20
2023-03-10T07:24:22.040Z,5.50
2023-03-10T07:26:50.555Z,5.73
2023-03-10T07:29:21.163Z,5.10
2023-03-10T07:31:52.710Z,5.93
2023-03-10T07:34:26.362Z,5.77
2023-03-10T07:37:17.686Z,5.77
2023-03-10T07:39:48.632Z,6.70
2023-03-10T07:42:18.643Z,6.17
2023-03-10T07:44:48.459Z,6.40
2023-03-10T07:47:20.521Z,6.57
2023-03-10T07:50:01.616Z,6.67
2023-03-10T07:52:40.871Z,6.83
2023-03-10T07:55:09.924Z,6.13
2023-03-10T07:57:39.157Z,7.00
2023-03-10T08:00:10.512Z,7.80
2023-03-10T08:02:44.120Z,8.13
2023-03-10T08:05:17.051Z,7.07
2023-03-10T08:07:58.861Z,7.00
2023-03-10T08:10:30.447Z,7.10
2023-03-10T08:13:07.248Z,6.77
2023-03-10T08:15:37.792Z,7.63
2023-03-10T08:18:11.137Z,7.17
2023-03-10T08:20:47.628Z,7.50
2023-03-10T08:23:32.432Z,7.17
2023-03-10T08:26:11.851Z,6.97
2023-03-10T08:28:42.202Z,7.30
2023-03-10T08:31:13.532Z,7.60
2023-03-10T08:33:44.129Z,6.90
2023-03-10T08:36:21.505Z,7.53
2023-03-10T08:38:56.855Z,7.27
2023-03-10T08:41:37.270Z,7.17
2023-03-10T08:44:08.021Z,6.77
2023-03-10T08:46:39.324Z,6.80
2023-03-10T08:49:19.523Z,6.97
2023-03-10T08:51:49.867Z,7.17
2023-03-10T08:54:22.872Z,6.47
2023-03-10T08:56:54.198Z,5.63
2023-03-10T08:59:29.185Z,6.27
2023-03-10T09:02:01.892Z,8.23
2023-03-10T09:04:31.559Z,7.73
2023-03-10T09:07:00.214Z,7.40
2023-03-10T09:09:35.696Z,6.30
2023-03-10T09:12:09.001Z,7.10
2023-03-10T09:14:42.172Z,7.37
2023-03-10T09:17:24.856Z,7.83
2023-03-10T09:19:55.657Z,7.10
2023-03-10T09:22:27.744Z,7.67
2023-03-10T09:25:04.517Z,7.20
2023-03-10T09:27:41.713Z,6.80
2023-03-10T09:30:14.158Z,6.53
2023-03-10T09:32:44.980Z,8.07
2023-03-10T09:35:18.035Z,7.50
2023-03-10T09:37:49.774Z,7.40
2023-03-10T09:40:25.515Z,7.00
2023-03-10T09:43:08.472Z,8.23
2023-03-10T09:45:41.713Z,7.07
2023-03-10T09:48:27.884Z,7.27
2023-03-10T09:51:04.528Z,8.50
2023-03-10T09:53:49.786Z,7.77
2023-03-10T09:56:29.727Z,7.70
2023-03-10T09:59:13.579Z,7.43
2023-03-10T10:01:48.085Z,9.03
2023-03-10T10:04:29.527Z,8.60
2023-03-10T10:07:16.727Z,8.60
2023-03-10T10:09:48.509Z,8.63
2023-03-10T10:12:26.369Z,7.40
2023-03-10T10:15:03.808Z,8.70
2023-03-10T10:17:56.397Z,8.20
2023-03-10T10:20:36.728Z,9.00
2023-03-10T10:23:16.481Z,8.83
2023-03-10T10:25:50.296Z,8.30
2023-03-10T10:28:37.409Z,8.33
2023-03-10T10:31:18.720Z,9.00
2023-03-10T10:34:20.086Z,8.57
2023-03-10T10:36:57.781Z,8.30
2023-03-10T10:39:31.570Z,8.77
2023-03-10T10:42:18.342Z,8.50
2023-03-10T10:44:54.797Z,8.30
2023-03-10T10:47:32.539Z,7.43
2023-03-10T10:50:29.437Z,7.67
2023-03-10T10:53:36.715Z,8.00
2023-03-10T10:56:08.797Z,7.97
2023-03-10T10:58:42.185Z,8.00
2023-03-10T11:01:21.308Z,7.97
2023-03-10T11:04:05.667Z,8.17
2023-03-10T11:06:38.307Z,7.30
2023-03-10T11:09:09.125Z,7.40
2023-03-10T11:11:48.212Z,6.90
2023-03-10T11:14:39.996Z,6.53
2023-03-10T11:17:26.533Z,5.97
2023-03-10T11:20:10.105Z,5.40
2023-03-10T11:22:43.583Z,5.40
2023-03-10T11:25:41.095Z,4.70
2023-03-10T11:28:38.122Z,4.30
2023-03-10T11:31:27.836Z,4.13
2023-03-10T11:34:13.095Z,3.87
2023-03-10T11:36:55.962Z,3.33
2023-03-10T11:39:33.877Z,2.60
2023-03-10T11:42:16.021Z,2.93
2023-03-10T11:44:54.175Z,2.00
2023-03-10T11:47:39.607Z,2.00
2023-03-10T11:50:27.005Z,2.20
2023-03-10T11:53:08.391Z,2.00
2023-03-10T11:55:38.678Z,2.13
2023-03-10T11:58:18.562Z,2.40
2023-03-10T12:00:56.684Z,2.00
2023-03-10T12:03:40.673Z,2.33
2023-03-10T12:06:16.230Z,2.20
2023-03-10T12:08:55.831Z,2.27
2023-03-10T12:11:31.806Z,1.97
2023-03-10T12:14:02.258Z,2.27
2023-03-10T12:16:33.954Z,2.00
2023-03-10T12:19:05.641Z,2.47
2023-03-10T12:21:36.128Z,2.23
2023-03-10T12:24:06.419Z,1.90
2023-03-10T12:27:05.761Z,2.23
2023-03-10T12:29:40.910Z,2.40
2023-03-10T12:32:43.672Z,2.20
2023-03-10T12:35:50.816Z,2.37
2023-03-10T12:38:46.518Z,2.00
2023-03-10T12:41:47.229Z,1.77
2023-03-10T12:44:44.469Z,2.23
2023-03-10T12:47:39.625Z,2.50
2023-03-10T12:50:24.128Z,2.00
2023-03-10T12:52:59.856Z,1.80
2023-03-10T12:55:37.264Z,1.67
2023-03-10T12:58:22.810Z,1.43
2023-03-10T13:00:55.326Z,1.97
2023-03-10T13:03:43.933Z,1.97
2023-03-10T13:06:23.641Z,1.70
2023-03-10T13:08:55.896Z,2.13
2023-03-10T13:11:34.869Z,1.73
2023-03-10T13:14:07.026Z,1.90
2023-03-10T13:16:38.068Z,1.60
2023-03-10T13:19:15.608Z,2.10
2023-03-10T13:21:53.204Z,1.90
2023-03-10T13:24:27.704Z,2.00
2023-03-10T13:27:11.610Z,1.70
2023-03-10T13:29:47.653Z,2.17
2023-03-10T13:32:29.408Z,2.03
2023-03-10T13:35:00.444Z,1.83
2023-03-10T13:37:32.302Z,1.70
2023-03-10T13:40:13.596Z,2.10
2023-03-10T13:42:44.811Z,1.83
2023-03-10T13:45:24.528Z,2.20
2023-03-10T13:47:55.279Z,1.90
2023-03-10T13:50:28.863Z,2.40
2023-03-10T13:53:00.249Z,1.77
2023-03-10T13:55:33.372Z,2.07
2023-03-10T13:58:09.666Z,1.70
2023-03-10T14:00:47.408Z,1.90
2023-03-10T14:03:18.398Z,1.90
2023-03-10T14:05:50.323Z,1.67
2023-03-10T14:08:22.812Z,2.10
2023-03-10T14:10:55.092Z,2.03
2023-03-10T14:13:44.805Z,2.07
2023-03-10T14:16:20.624Z,2.00
2023-03-10T14:18:51.762Z,2.27
2023-03-10T14:21:58.550Z,2.60
2023-03-10T14:24:30.927Z,3.00
2023-03-10T14:27:01.862Z,2.10
2023-03-10T14:29:32.787Z,1.80
2023-03-10T14:32:06.812Z,2.00
2023-03-10T14:34:37.735Z,1.53
2023-03-10T14:37:09.374Z,2.13
2023-03-10T14:39:37.999Z,1.20
2023-03-10T14:42:15.481Z,1.53
2023-03-10T14:44:55.391Z,1.03
2023-03-10T14:47:27.149Z,1.40
2023-03-10T14:50:03.880Z,1.30
2023-03-10T14:52:32.749Z,1.50
2023-03-10T14:55:04.477Z,1.40
2023-03-10T14:57:36.663Z,1.40
2023-03-10T15:00:15.666Z,1.53
2023-03-10T15:02:44.792Z,1.40
2023-03-10T15:05:18.719Z,1.00
2023-03-10T15:08:01.268Z,1.70
2023-03-10T15:10:35.666Z,1.30
2023-03-10T15:13:05.058Z,1.23
2023-03-10T15:15:43.804Z,1.43
2023-03-10T15:18:24.237Z,1.40
2023-03-10T15:20:55.388Z,1.20
2023-03-10T15:23:31.909Z,1.40
2023-03-10T15:26:12.165Z,1.63
2023-03-10T15:28:44.944Z,1.30
2023-03-10T15:31:28.413Z,2.00
2023-03-10T15:34:02.676Z,1.10
2023-03-10T15:36:32.418Z,1.60
2023-03-10T15:39:00.933Z,1.77
2023-03-10T15:41:45.625Z,1.17
2023-03-10T15:44:17.404Z,1.37
2023-03-10T15:46:53.341Z,1.37
2023-03-10T15:49:26.025Z,1.70
2023-03-10T15:52:03.106Z,1.50
2023-03-10T15:54:46.046Z,1.77
2023-03-10T15:57:15.466Z,0.90
2023-03-10T15:59:54.219Z,1.40
2023-03-10T16:02:26.992Z,1.00
2023-03-10T16:04:58.167Z,1.47
2023-03-10T16:07:30.504Z,1.30
2023-03-10T16:09:59.930Z,1.60
2023-03-10T16:12:36.272Z,2.40
2023-03-10T16:15:09.375Z,2.70
2023-03-10T16:17:43.930Z,2.00
2023-03-10T16:20:21.814Z,1.83
2023-03-10T16:22:53.674Z,40.10
2023-03-10T16:25:26.957Z,15.40
2023-03-10T16:28:04.593Z,4.17
2023-03-10T16:30:42.474Z,1.50
2023-03-10T16:33:17.152Z,1.73
2023-03-10T16:35:47.802Z,1.70
2023-03-10T16:41:03.913Z,2.53
2023-03-10T16:43:47.524Z,1.80
2023-03-10T16:46:22.739Z,1.70
2023-03-10T16:49:07.734Z,2.10
2023-03-10T16:51:40.041Z,1.43
2023-03-10T16:54:11.313Z,2.00
2023-03-10T16:56:49.503Z,2.20
2023-03-10T16:59:25.367Z,1.93
2023-03-10T17:01:56.203Z,1.80
2023-03-10T17:04:36.206Z,1.83
2023-03-10T17:07:11.820Z,2.10
2023-03-10T17:09:48.363Z,1.90
2023-03-10T17:12:24.241Z,1.67
2023-03-10T17:14:57.844Z,2.00
2023-03-10T17:17:30.239Z,2.10
2023-03-10T17:20:16.661Z,2.00
2023-03-10T17:22:48.411Z,2.10
2023-03-10T17:25:24.192Z,2.53
2023-03-10T17:27:53.997Z,1.97
2023-03-10T17:30:29.347Z,2.13
2023-03-10T17:33:10.533Z,1.80
2023-03-10T17:35:59.455Z,2.40
2023-03-10T17:38:31.333Z,2.17
2023-03-10T17:41:04.802Z,2.10
2023-03-10T17:43:45.641Z,1.77
2023-03-10T17:46:29.651Z,2.20
2023-03-10T17:49:07.965Z,2.77
2023-03-10T17:51:47.451Z,2.17
2023-03-10T17:54:24.561Z,2.37
2023-03-10T17:56:53.839Z,2.30
2023-03-10T17:59:39.513Z,1.73
2023-03-10T18:02:26.551Z,1.93
2023-03-10T18:05:08.989Z,1.70
2023-03-10T18:07:55.290Z,2.20
2023-03-10T18:10:25.193Z,1.80
2023-03-10T18:12:55.974Z,2.20
2023-03-10T18:15:25.643Z,2.10
2023-03-10T18:18:19.735Z,1.67
2023-03-10T18:21:07.532Z,1.90
2023-03-10T18:23:43.908Z,1.93
2023-03-10T18:26:24.310Z,1.50
2023-03-10T18:29:09.251Z,2.17
2023-03-10T18:32:04.616Z,1.70
2023-03-10T18:34:39.149Z,1.30
2023-03-10T18:37:09.278Z,1.60
2023-03-10T18:40:01.745Z,2.30
2023-03-10T18:42:48.009Z,1.90
2023-03-10T18:45:31.680Z,2.00
2023-03-10T18:48:04.683Z,1.63
2023-03-10T18:50:43.181Z,1.87
2023-03-10T18:53:24.095Z,2.37
2023-03-10T18:56:08.593Z,1.83
2023-03-10T18:58:39.993Z,2.30
2023-03-10T19:01:20.564Z,1.77
2023-03-10T19:03:55.331Z,1.87
2023-03-10T19:06:35.852Z,1.73
2023-03-10T19:09:10.039Z,1.13
2023-03-10T19:11:44.024Z,1.90
2023-03-10T19:14:17.157Z,1.27
2023-03-10T19:16:50.350Z,1.50
2023-03-10T19:19:34.177Z,1.33
2023-03-10T19:22:24.388Z,1.17
2023-03-10T19:24:55.484Z,1.27
2023-03-10T19:27:43.410Z,1.70
2023-03-10T19:30:28.068Z,1.07
2023-03-10T19:32:58.797Z,1.10
2023-03-10T19:35:30.161Z,0.70
2023-03-10T19:38:00.921Z,1.03
2023-03-10T19:40:32.369Z,1.00
2023-03-10T19:46:12.725Z,0.80
2023-03-10T19:48:51.295Z,0.70
2023-03-10T19:51:24.895Z,0.70
2023-03-10T19:54:04.372Z,0.60
2023-03-10T19:56:37.084Z,0.80
2023-03-10T19:59:25.726Z,0.70
2023-03-10T20:02:03.046Z,0.90
2023-03-10T20:04:34.809Z,0.70
2023-03-10T20:07:07.547Z,0.50
2023-03-10T20:09:38.500Z,0.63
2023-03-10T20:12:20.666Z,0.67
2023-03-10T20:14:59.180Z,0.60
2023-03-10T20:17:39.214Z,0.60
2023-03-10T20:20:20.771Z,0.70
2023-03-10T20:23:01.954Z,0.60
2023-03-10T20:25:41.319Z,0.37
2023-03-10T20:28:21.645Z,0.40
2023-03-10T20:31:12.167Z,0.60
2023-03-10T20:33:58.861Z,0.60
2023-03-10T20:36:34.355Z,0.50
2023-03-10T20:39:06.694Z,0.60
2023-03-10T20:41:45.056Z,0.70
2023-03-10T20:44:28.833Z,0.60
2023-03-10T20:47:14.372Z,0.67
2023-03-10T20:49:48.571Z,0.50
2023-03-10T20:52:26.449Z,0.50
2023-03-10T20:54:59.568Z,1.10
2023-03-10T20:57:29.793Z,0.80
2023-03-10T21:00:07.143Z,0.70
2023-03-10T21:02:45.608Z,0.63
2023-03-10T21:05:20.053Z,0.80
2023-03-10T21:07:50.173Z,0.50
2023-03-10T21:10:28.083Z,1.00
2023-03-10T21:13:13.691Z,0.83
2023-03-10T21:15:45.470Z,1.20
2023-03-10T21:18:22.759Z,0.93
2023-03-10T21:21:06.033Z,0.70
2023-03-10T21:23:53.634Z,0.67
2023-03-10T21:26:24.083Z,0.60
2023-03-10T21:28:54.194Z,0.60
2023-03-10T21:31:24.966Z,0.80
2023-03-10T21:34:09.939Z,0.83
2023-03-10T21:36:40.678Z,0.70
2023-03-10T21:39:19.391Z,0.67
2023-03-10T21:41:50.560Z,0.70
2023-03-10T21:44:23.778Z,0.73
2023-03-10T21:47:05.869Z,0.90
2023-03-10T21:49:55.780Z,1.20
2023-03-10T21:52:30.688Z,1.20
2023-03-10T21:55:02.906Z,0.80
2023-03-10T21:57:35.865Z,0.80
2023-03-10T22:00:09.454Z,0.70
2023-03-10T22:02:41.353Z,0.83
2023-03-10T22:05:22.787Z,0.50
2023-03-10T22:07:55.902Z,0.60
2023-03-10T22:10:25.376Z,0.97
2023-03-10T22:12:54.239Z,0.70
2023-03-10T22:15:33.197Z,1.03
2023-03-10T22:18:02.501Z,1.23
2023-03-10T22:20:49.304Z,1.23
2023-03-10T22:23:20.858Z,1.10
2023-03-10T22:26:00.757Z,1.20
2023-03-10T22:28:30.864Z,0.97
2023-03-10T22:31:02.113Z,1.33
2023-03-10T22:33:39.821Z,1.53
2023-03-10T22:36:15.880Z,1.17
2023-03-10T22:38:46.975Z,2.30
2023-03-10T22:41:20.921Z,1.80
2023-03-10T22:43:51.641Z,1.50
2023-03-10T22:46:20.348Z,2.00
2023-03-10T22:48:50.241Z,1.47
2023-03-10T22:51:34.873Z,1.33
2023-03-10T22:54:07.610Z,1.10
2023-03-10T22:56:38.911Z,1.37
2023-03-10T22:59:12.846Z,1.40
2023-03-10T23:01:44.263Z,1.17
2023-03-10T23:04:16.968Z,1.17
2023-03-10T23:06:49.692Z,1.00
2023-03-10T23:09:21.276Z,0.70
2023-03-10T23:11:52.974Z,1.30
2023-03-10T23:14:22.257Z,1.00
2023-03-10T23:16:53.620Z,0.90
2023-03-10T23:19:23.270Z,0.83
2023-03-10T23:22:01.239Z,1.20
2023-03-10T23:24:33.289Z,1.57
2023-03-10T23:27:04.732Z,1.10
2023-03-10T23:29:36.742Z,1.30
2023-03-10T23:32:06.112Z,1.20
2023-03-10T23:34:40.210Z,1.40
2023-03-10T23:37:23.851Z,1.00
2023-03-10T23:39:55.770Z,0.83
2023-03-10T23:42:24.402Z,0.90
2023-03-10T23:44:57.081Z,0.80
2023-03-10T23:47:26.374Z,1.10
2023-03-10T23:50:06.763Z,0.80
2023-03-10T23:52:39.244Z,1.00
2023-03-10T23:55:09.638Z,1.13
2023-03-10T23:57:38.761Z,0.73
